»·PEaware :: UAL418 KLAX-KSAN

UAL418 :: KLAX-KSAN

FLIGHT INFORMATION

Flight Status: Arrived
Operator:
United Airlines
More flights by this operator :: More flights under this callsign
Pilot: Ryan L. (9775)
Aircraft: BOEING 737-800
(B738)
More flights by this aircraft type
Origin: KLAX Los Angeles Intl
United States
Destination: KSAN San Diego Intl-Lindbergh
United States
More flights between these airports :: More routes between these airports
Route: LAXX1 MZB
File this flight plan on PilotEdge
Remarks:
Altitude:
(Current/Filed)
0ft
Speed:
(Current/Filed)
0kts
Departed: 04-Oct-18 07:24 PM
Arrived: 04-Oct-18 07:56 PM
Distance/Time
Traveled:
94nm/0:32
Distance/Time
To Go:
Arrived

Flight Plot

Page will automatically refresh every two minutes.

Flight plan parsing failed; only flown route is shown


Map Options




Map Legend


Flown Route
Filed Route
Departure Airport
Arrival Airport
Navaid (VOR, NDB)
Fix

Horizontal Profiles

Position Reports

Time Latitude Longitude Heading Altitude Ground
Speed
04-Oct-18 19:11 33.940345 -118.399777 34 132ft 0kts
04-Oct-18 19:12 33.940345 -118.399777 34 132ft 0kts
04-Oct-18 19:13 33.940345 -118.399777 34 132ft 0kts
04-Oct-18 19:14 33.940345 -118.399777 34 132ft 0kts
04-Oct-18 19:15 33.940345 -118.399777 34 132ft 0kts
04-Oct-18 19:16 33.940345 -118.399778 34 133ft 0kts
04-Oct-18 19:17 33.940056 -118.400013 34 133ft 2kts
04-Oct-18 19:18 33.940053 -118.400602 152 133ft 2kts
04-Oct-18 19:19 33.940209 -118.400647 173 132ft 0kts
04-Oct-18 19:20 33.940209 -118.400647 173 132ft 0kts
04-Oct-18 19:21 33.940205 -118.400646 173 132ft 0kts
04-Oct-18 19:22 33.938875 -118.399252 82 132ft 13kts
04-Oct-18 19:23 33.939463 -118.393509 81 132ft 22kts
04-Oct-18 19:24 33.940275 -118.385253 83 132ft 24kts
04-Oct-18 19:25 33.939778 -118.380675 263 132ft 14kts
04-Oct-18 19:26 33.938240 -118.395826 263 133ft 141kts
04-Oct-18 19:27 33.929991 -118.454111 246 2108ft 189kts
04-Oct-18 19:28 33.898503 -118.515412 234 3040ft 248kts
04-Oct-18 19:29 33.855118 -118.584275 233 5342ft 274kts
04-Oct-18 19:30 33.791911 -118.622003 164 8095ft 286kts
04-Oct-18 19:31 33.714788 -118.594906 162 10397ft 311kts
04-Oct-18 19:32 33.639980 -118.540836 108 11033ft 350kts
04-Oct-18 19:33 33.617848 -118.428464 101 11001ft 348kts
04-Oct-18 19:34 33.597071 -118.315935 101 10999ft 350kts
04-Oct-18 19:35 33.576077 -118.202931 101 10999ft 350kts
04-Oct-18 19:36 33.554987 -118.089919 101 10999ft 352kts
04-Oct-18 19:37 33.533842 -117.977302 101 10969ft 349kts
04-Oct-18 19:38 33.512661 -117.865049 101 10971ft 348kts
04-Oct-18 19:39 33.491304 -117.752451 101 10971ft 347kts
04-Oct-18 19:40 33.455000 -117.647380 132 10980ft 350kts
04-Oct-18 19:41 33.378430 -117.578058 135 10971ft 350kts
04-Oct-18 19:42 33.309612 -117.498018 133 10971ft 350kts
04-Oct-18 19:43 33.239473 -117.420199 146 10967ft 351kts
04-Oct-18 19:44 33.149571 -117.378952 159 10971ft 352kts
04-Oct-18 19:45 33.065298 -117.343836 159 10964ft 299kts
04-Oct-18 19:46 32.988479 -117.311637 159 9774ft 286kts
04-Oct-18 19:47 32.926284 -117.267842 130 8354ft 273kts
04-Oct-18 19:48 32.879512 -117.203436 129 7991ft 271kts
04-Oct-18 19:49 32.831377 -117.136872 129 7228ft 259kts
04-Oct-18 19:50 32.788665 -117.077972 128 6049ft 215kts
04-Oct-18 19:51 32.767641 -117.020815 101 5486ft 178kts
04-Oct-18 19:52 32.749946 -116.966589 136 4860ft 184kts
04-Oct-18 19:53 32.703356 -116.963997 233 4028ft 184kts
04-Oct-18 19:54 32.694246 -117.019651 286 3264ft 165kts
04-Oct-18 19:55 32.704448 -117.068666 287 2247ft 152kts
04-Oct-18 19:56 32.715658 -117.115445 288 1269ft 148kts
04-Oct-18 19:57 32.726710 -117.161391 287 463ft 144kts
04-Oct-18 19:58 32.735074 -117.195930 285 25ft 18kts
04-Oct-18 19:59 32.734888 -117.198957 254 24ft 2kts
04-Oct-18 20:00 32.734815 -117.202385 209 25ft 8kts
04-Oct-18 20:01 32.733754 -117.203305 268 25ft 4kts
04-Oct-18 20:02 32.733751 -117.203503 269 25ft 0kts
04-Oct-18 20:03 32.733751 -117.203503 269 25ft 0kts

Navigation Log

Ident Type
Flight plan parsing failed, navigation log unavailable